sensor_id;sensor_type;location;lat;lon;timestamp;P1;durP1;ratioP1;P2;durP2;ratioP2
75698;SDS011;64313;51.018;13.742;2023-02-19T00:01:12;3.60;;;1.30;;
75698;SDS011;64313;51.018;13.742;2023-02-19T00:03:39;4.35;;;1.30;;
75698;SDS011;64313;51.018;13.742;2023-02-19T00:06:07;4.30;;;1.58;;
75698;SDS011;64313;51.018;13.742;2023-02-19T00:08:35;4.75;;;1.13;;
75698;SDS011;64313;51.018;13.742;2023-02-19T00:11:02;5.03;;;1.63;;
75698;SDS011;64313;51.018;13.742;2023-02-19T00:13:30;4.78;;;1.35;;
75698;SDS011;64313;51.018;13.742;2023-02-19T00:15:55;4.03;;;1.55;;
75698;SDS011;64313;51.018;13.742;2023-02-19T00:18:21;4.18;;;1.52;;
75698;SDS011;64313;51.018;13.742;2023-02-19T00:20:47;3.53;;;1.50;;
75698;SDS011;64313;51.018;13.742;2023-02-19T00:23:13;4.03;;;1.23;;
75698;SDS011;64313;51.018;13.742;2023-02-19T00:25:38;4.50;;;1.40;;
75698;SDS011;64313;51.018;13.742;2023-02-19T00:28:04;4.30;;;1.10;;
75698;SDS011;64313;51.018;13.742;2023-02-19T00:30:29;3.53;;;1.30;;
75698;SDS011;64313;51.018;13.742;2023-02-19T00:32:54;3.60;;;1.30;;
75698;SDS011;64313;51.018;13.742;2023-02-19T00:35:20;3.80;;;1.40;;
75698;SDS011;64313;51.018;13.742;2023-02-19T00:37:46;4.35;;;1.48;;
75698;SDS011;64313;51.018;13.742;2023-02-19T00:40:11;3.60;;;1.25;;
75698;SDS011;64313;51.018;13.742;2023-02-19T00:42:37;4.50;;;1.45;;
75698;SDS011;64313;51.018;13.742;2023-02-19T00:45:02;4.32;;;1.40;;
75698;SDS011;64313;51.018;13.742;2023-02-19T00:47:31;3.25;;;1.25;;
75698;SDS011;64313;51.018;13.742;2023-02-19T00:49:57;3.70;;;1.40;;
75698;SDS011;64313;51.018;13.742;2023-02-19T00:52:25;4.30;;;1.17;;
75698;SDS011;64313;51.018;13.742;2023-02-19T00:54:50;5.15;;;1.50;;
75698;SDS011;64313;51.018;13.742;2023-02-19T00:57:16;3.90;;;1.40;;
75698;SDS011;64313;51.018;13.742;2023-02-19T00:59:41;3.78;;;1.20;;
75698;SDS011;64313;51.018;13.742;2023-02-19T01:02:06;4.05;;;1.20;;
75698;SDS011;64313;51.018;13.742;2023-02-19T01:04:32;3.75;;;1.20;;
75698;SDS011;64313;51.018;13.742;2023-02-19T01:06:57;4.32;;;1.27;;
75698;SDS011;64313;51.018;13.742;2023-02-19T01:09:23;3.50;;;1.17;;
75698;SDS011;64313;51.018;13.742;2023-02-19T01:11:48;3.50;;;1.10;;
75698;SDS011;64313;51.018;13.742;2023-02-19T01:14:13;3.00;;;1.10;;
75698;SDS011;64313;51.018;13.742;2023-02-19T01:16:39;3.75;;;1.20;;
75698;SDS011;64313;51.018;13.742;2023-02-19T01:19:04;6.03;;;1.40;;
75698;SDS011;64313;51.018;13.742;2023-02-19T01:21:30;4.82;;;1.23;;
75698;SDS011;64313;51.018;13.742;2023-02-19T01:23:56;4.20;;;1.13;;
75698;SDS011;64313;51.018;13.742;2023-02-19T01:26:26;3.80;;;1.10;;
75698;SDS011;64313;51.018;13.742;2023-02-19T01:28:53;3.67;;;1.23;;
75698;SDS011;64313;51.018;13.742;2023-02-19T01:31:20;4.57;;;1.10;;
75698;SDS011;64313;51.018;13.742;2023-02-19T01:33:47;3.65;;;1.10;;
75698;SDS011;64313;51.018;13.742;2023-02-19T01:36:17;3.33;;;1.10;;
75698;SDS011;64313;51.018;13.742;2023-02-19T01:38:43;3.90;;;1.20;;
75698;SDS011;64313;51.018;13.742;2023-02-19T01:41:09;3.08;;;1.10;;
75698;SDS011;64313;51.018;13.742;2023-02-19T01:43:55;3.72;;;1.27;;
75698;SDS011;64313;51.018;13.742;2023-02-19T01:49:03;3.88;;;1.20;;
75698;SDS011;64313;51.018;13.742;2023-02-19T01:54:00;3.95;;;1.20;;
75698;SDS011;64313;51.018;13.742;2023-02-19T01:56:30;5.90;;;1.30;;
75698;SDS011;64313;51.018;13.742;2023-02-19T01:58:59;5.78;;;1.65;;
75698;SDS011;64313;51.018;13.742;2023-02-19T02:01:25;3.70;;;1.20;;
75698;SDS011;64313;51.018;13.742;2023-02-19T02:03:50;4.90;;;1.40;;
75698;SDS011;64313;51.018;13.742;2023-02-19T02:06:37;3.38;;;1.30;;
75698;SDS011;64313;51.018;13.742;2023-02-19T02:09:13;4.45;;;1.20;;
75698;SDS011;64313;51.018;13.742;2023-02-19T02:11:59;3.72;;;1.25;;
75698;SDS011;64313;51.018;13.742;2023-02-19T02:14:28;3.00;;;1.10;;
75698;SDS011;64313;51.018;13.742;2023-02-19T02:17:02;3.50;;;1.27;;
75698;SDS011;64313;51.018;13.742;2023-02-19T02:22:28;2.55;;;0.85;;
75698;SDS011;64313;51.018;13.742;2023-02-19T02:27:55;2.90;;;0.90;;
75698;SDS011;64313;51.018;13.742;2023-02-19T02:33:11;3.38;;;1.10;;
75698;SDS011;64313;51.018;13.742;2023-02-19T02:36:04;2.55;;;0.90;;
75698;SDS011;64313;51.018;13.742;2023-02-19T02:38:38;2.55;;;0.98;;
75698;SDS011;64313;51.018;13.742;2023-02-19T02:41:06;2.65;;;1.00;;
75698;SDS011;64313;51.018;13.742;2023-02-19T02:43:32;3.17;;;0.95;;
75698;SDS011;64313;51.018;13.742;2023-02-19T02:45:58;2.72;;;0.80;;
75698;SDS011;64313;51.018;13.742;2023-02-19T02:48:32;2.55;;;1.00;;
75698;SDS011;64313;51.018;13.742;2023-02-19T02:54:09;1.67;;;0.60;;
75698;SDS011;64313;51.018;13.742;2023-02-19T02:56:58;2.10;;;0.80;;
75698;SDS011;64313;51.018;13.742;2023-02-19T02:59:30;2.97;;;0.85;;
75698;SDS011;64313;51.018;13.742;2023-02-19T03:02:02;2.58;;;0.85;;
75698;SDS011;64313;51.018;13.742;2023-02-19T03:07:40;1.15;;;0.52;;
75698;SDS011;64313;51.018;13.742;2023-02-19T03:10:14;1.83;;;0.57;;
75698;SDS011;64313;51.018;13.742;2023-02-19T03:12:43;2.45;;;0.70;;
75698;SDS011;64313;51.018;13.742;2023-02-19T03:15:32;1.83;;;0.65;;
75698;SDS011;64313;51.018;13.742;2023-02-19T03:18:22;1.95;;;0.70;;
75698;SDS011;64313;51.018;13.742;2023-02-19T03:21:09;1.67;;;0.60;;
75698;SDS011;64313;51.018;13.742;2023-02-19T03:23:38;0.82;;;0.40;;
75698;SDS011;64313;51.018;13.742;2023-02-19T03:26:23;1.00;;;0.40;;
75698;SDS011;64313;51.018;13.742;2023-02-19T03:28:51;1.58;;;0.52;;
75698;SDS011;64313;51.018;13.742;2023-02-19T03:31:38;0.75;;;0.40;;
75698;SDS011;64313;51.018;13.742;2023-02-19T03:34:09;1.92;;;0.60;;
75698;SDS011;64313;51.018;13.742;2023-02-19T03:36:39;1.77;;;0.60;;
75698;SDS011;64313;51.018;13.742;2023-02-19T03:39:11;1.30;;;0.52;;
75698;SDS011;64313;51.018;13.742;2023-02-19T03:41:42;1.48;;;0.60;;
75698;SDS011;64313;51.018;13.742;2023-02-19T03:50:17;0.93;;;0.50;;
75698;SDS011;64313;51.018;13.742;2023-02-19T03:53:07;0.70;;;0.40;;
75698;SDS011;64313;51.018;13.742;2023-02-19T03:58:31;2.75;;;0.80;;
75698;SDS011;64313;51.018;13.742;2023-02-19T04:01:09;0.38;;;0.30;;
75698;SDS011;64313;51.018;13.742;2023-02-19T04:03:47;0.73;;;0.30;;
75698;SDS011;64313;51.018;13.742;2023-02-19T04:06:22;0.45;;;0.28;;
75698;SDS011;64313;51.018;13.742;2023-02-19T04:08:52;0.17;;;0.17;;
75698;SDS011;64313;51.018;13.742;2023-02-19T04:11:21;0.20;;;0.20;;
75698;SDS011;64313;51.018;13.742;2023-02-19T04:13:57;0.75;;;0.17;;
75698;SDS011;64313;51.018;13.742;2023-02-19T04:16:29;0.57;;;0.20;;
75698;SDS011;64313;51.018;13.742;2023-02-19T04:19:01;0.43;;;0.22;;
75698;SDS011;64313;51.018;13.742;2023-02-19T04:21:31;0.43;;;0.20;;
75698;SDS011;64313;51.018;13.742;2023-02-19T04:23:59;0.10;;;0.10;;
75698;SDS011;64313;51.018;13.742;2023-02-19T04:26:31;0.38;;;0.10;;
75698;SDS011;64313;51.018;13.742;2023-02-19T04:28:57;0.40;;;0.13;;
75698;SDS011;64313;51.018;13.742;2023-02-19T04:31:23;0.85;;;0.22;;
75698;SDS011;64313;51.018;13.742;2023-02-19T04:33:51;0.47;;;0.20;;
75698;SDS011;64313;51.018;13.742;2023-02-19T04:36:17;0.55;;;0.20;;
75698;SDS011;64313;51.018;13.742;2023-02-19T04:38:42;0.70;;;0.22;;
75698;SDS011;64313;51.018;13.742;2023-02-19T04:41:08;0.85;;;0.28;;
75698;SDS011;64313;51.018;13.742;2023-02-19T04:43:33;0.40;;;0.20;;
75698;SDS011;64313;51.018;13.742;2023-02-19T04:45:59;0.22;;;0.17;;
75698;SDS011;64313;51.018;13.742;2023-02-19T04:48:26;0.85;;;0.20;;
75698;SDS011;64313;51.018;13.742;2023-02-19T04:50:51;0.30;;;0.20;;
75698;SDS011;64313;51.018;13.742;2023-02-19T04:53:17;0.43;;;0.20;;
75698;SDS011;64313;51.018;13.742;2023-02-19T04:55:42;0.70;;;0.30;;
75698;SDS011;64313;51.018;13.742;2023-02-19T04:58:07;0.10;;;0.10;;
75698;SDS011;64313;51.018;13.742;2023-02-19T05:00:33;0.63;;;0.20;;
75698;SDS011;64313;51.018;13.742;2023-02-19T05:02:58;0.73;;;0.38;;
75698;SDS011;64313;51.018;13.742;2023-02-19T05:05:24;0.30;;;0.30;;
75698;SDS011;64313;51.018;13.742;2023-02-19T05:07:51;0.63;;;0.30;;
75698;SDS011;64313;51.018;13.742;2023-02-19T05:10:17;0.43;;;0.30;;
75698;SDS011;64313;51.018;13.742;2023-02-19T05:12:42;0.82;;;0.35;;
75698;SDS011;64313;51.018;13.742;2023-02-19T05:15:08;1.85;;;0.45;;
75698;SDS011;64313;51.018;13.742;2023-02-19T05:17:33;0.77;;;0.40;;
75698;SDS011;64313;51.018;13.742;2023-02-19T05:19:59;0.88;;;0.43;;
75698;SDS011;64313;51.018;13.742;2023-02-19T05:22:28;1.02;;;0.40;;
75698;SDS011;64313;51.018;13.742;2023-02-19T05:24:54;1.10;;;0.40;;
75698;SDS011;64313;51.018;13.742;2023-02-19T05:27:19;1.38;;;0.30;;
75698;SDS011;64313;51.018;13.742;2023-02-19T05:29:45;0.88;;;0.45;;
75698;SDS011;64313;51.018;13.742;2023-02-19T05:32:10;0.60;;;0.40;;
75698;SDS011;64313;51.018;13.742;2023-02-19T05:34:35;1.33;;;0.60;;
75698;SDS011;64313;51.018;13.742;2023-02-19T05:37:01;0.85;;;0.30;;
75698;SDS011;64313;51.018;13.742;2023-02-19T05:39:26;0.60;;;0.30;;
75698;SDS011;64313;51.018;13.742;2023-02-19T05:44:18;0.60;;;0.30;;
75698;SDS011;64313;51.018;13.742;2023-02-19T05:46:43;0.20;;;0.20;;
75698;SDS011;64313;51.018;13.742;2023-02-19T05:49:09;0.43;;;0.10;;
75698;SDS011;64313;51.018;13.742;2023-02-19T05:51:34;0.22;;;0.20;;
75698;SDS011;64313;51.018;13.742;2023-02-19T05:53:59;1.35;;;0.40;;
75698;SDS011;64313;51.018;13.742;2023-02-19T05:56:35;1.08;;;0.43;;
75698;SDS011;64313;51.018;13.742;2023-02-19T05:59:21;0.80;;;0.32;;
75698;SDS011;64313;51.018;13.742;2023-02-19T06:01:49;1.70;;;0.45;;
75698;SDS011;64313;51.018;13.742;2023-02-19T06:04:15;1.05;;;0.40;;
75698;SDS011;64313;51.018;13.742;2023-02-19T06:06:43;1.80;;;0.50;;
75698;SDS011;64313;51.018;13.742;2023-02-19T06:09:08;1.70;;;0.40;;
75698;SDS011;64313;51.018;13.742;2023-02-19T06:14:00;2.13;;;0.60;;
75698;SDS011;64313;51.018;13.742;2023-02-19T06:18:51;1.67;;;0.25;;
75698;SDS011;64313;51.018;13.742;2023-02-19T06:21:17;1.42;;;0.45;;
75698;SDS011;64313;51.018;13.742;2023-02-19T06:23:43;0.57;;;0.30;;
75698;SDS011;64313;51.018;13.742;2023-02-19T06:26:10;0.38;;;0.20;;
75698;SDS011;64313;51.018;13.742;2023-02-19T06:28:41;0.52;;;0.30;;
75698;SDS011;64313;51.018;13.742;2023-02-19T06:31:08;0.60;;;0.30;;
75698;SDS011;64313;51.018;13.742;2023-02-19T06:33:34;0.68;;;0.30;;
75698;SDS011;64313;51.018;13.742;2023-02-19T06:36:02;0.98;;;0.30;;
75698;SDS011;64313;51.018;13.742;2023-02-19T06:38:28;0.57;;;0.30;;
75698;SDS011;64313;51.018;13.742;2023-02-19T06:40:54;0.55;;;0.20;;
75698;SDS011;64313;51.018;13.742;2023-02-19T06:43:24;0.52;;;0.30;;
75698;SDS011;64313;51.018;13.742;2023-02-19T06:45:50;2.17;;;0.40;;
75698;SDS011;64313;51.018;13.742;2023-02-19T06:48:15;0.63;;;0.38;;
75698;SDS011;64313;51.018;13.742;2023-02-19T06:50:41;1.25;;;0.50;;
75698;SDS011;64313;51.018;13.742;2023-02-19T06:53:18;0.60;;;0.30;;
75698;SDS011;64313;51.018;13.742;2023-02-19T06:55:45;2.10;;;0.60;;
75698;SDS011;64313;51.018;13.742;2023-02-19T06:58:30;0.88;;;0.50;;
75698;SDS011;64313;51.018;13.742;2023-02-19T07:00:56;0.85;;;0.43;;
75698;SDS011;64313;51.018;13.742;2023-02-19T07:03:22;0.90;;;0.47;;
75698;SDS011;64313;51.018;13.742;2023-02-19T07:05:47;1.45;;;0.50;;
75698;SDS011;64313;51.018;13.742;2023-02-19T07:08:13;0.90;;;0.40;;
75698;SDS011;64313;51.018;13.742;2023-02-19T07:10:41;1.20;;;0.55;;
75698;SDS011;64313;51.018;13.742;2023-02-19T07:13:07;1.27;;;0.50;;
75698;SDS011;64313;51.018;13.742;2023-02-19T07:15:32;2.13;;;0.40;;
75698;SDS011;64313;51.018;13.742;2023-02-19T07:17:58;1.35;;;0.50;;
75698;SDS011;64313;51.018;13.742;2023-02-19T07:20:23;1.73;;;0.50;;
75698;SDS011;64313;51.018;13.742;2023-02-19T07:22:49;1.17;;;0.50;;
75698;SDS011;64313;51.018;13.742;2023-02-19T07:25:16;1.02;;;0.30;;
75698;SDS011;64313;51.018;13.742;2023-02-19T07:27:42;0.77;;;0.30;;
75698;SDS011;64313;51.018;13.742;2023-02-19T07:30:07;1.60;;;0.40;;
75698;SDS011;64313;51.018;13.742;2023-02-19T07:32:33;1.90;;;0.47;;
75698;SDS011;64313;51.018;13.742;2023-02-19T07:34:58;1.55;;;0.40;;
75698;SDS011;64313;51.018;13.742;2023-02-19T07:37:25;1.30;;;0.50;;
75698;SDS011;64313;51.018;13.742;2023-02-19T07:39:50;1.75;;;0.43;;
75698;SDS011;64313;51.018;13.742;2023-02-19T07:42:15;2.45;;;0.80;;
75698;SDS011;64313;51.018;13.742;2023-02-19T07:44:42;1.88;;;0.50;;
75698;SDS011;64313;51.018;13.742;2023-02-19T07:47:07;1.27;;;0.55;;
75698;SDS011;64313;51.018;13.742;2023-02-19T07:49:33;1.48;;;0.50;;
75698;SDS011;64313;51.018;13.742;2023-02-19T07:51:58;1.00;;;0.50;;
75698;SDS011;64313;51.018;13.742;2023-02-19T07:54:23;1.10;;;0.47;;
75698;SDS011;64313;51.018;13.742;2023-02-19T07:56:49;0.60;;;0.40;;
75698;SDS011;64313;51.018;13.742;2023-02-19T07:59:14;1.02;;;0.40;;
75698;SDS011;64313;51.018;13.742;2023-02-19T08:01:43;1.10;;;0.50;;
75698;SDS011;64313;51.018;13.742;2023-02-19T08:04:27;1.13;;;0.50;;
75698;SDS011;64313;51.018;13.742;2023-02-19T08:06:52;1.35;;;0.60;;
75698;SDS011;64313;51.018;13.742;2023-02-19T08:09:17;2.15;;;0.80;;
75698;SDS011;64313;51.018;13.742;2023-02-19T08:11:43;1.95;;;0.70;;
75698;SDS011;64313;51.018;13.742;2023-02-19T08:14:27;1.40;;;0.50;;
75698;SDS011;64313;51.018;13.742;2023-02-19T08:19:18;2.15;;;0.68;;
75698;SDS011;64313;51.018;13.742;2023-02-19T08:21:43;1.38;;;0.60;;
75698;SDS011;64313;51.018;13.742;2023-02-19T08:26:34;1.70;;;0.60;;
75698;SDS011;64313;51.018;13.742;2023-02-19T08:29:00;1.05;;;0.50;;
75698;SDS011;64313;51.018;13.742;2023-02-19T08:33:51;0.98;;;0.50;;
75698;SDS011;64313;51.018;13.742;2023-02-19T08:38:42;1.17;;;0.50;;
75698;SDS011;64313;51.018;13.742;2023-02-19T08:41:11;1.80;;;0.50;;
75698;SDS011;64313;51.018;13.742;2023-02-19T08:43:38;1.63;;;0.70;;
75698;SDS011;64313;51.018;13.742;2023-02-19T08:46:04;1.30;;;0.50;;
75698;SDS011;64313;51.018;13.742;2023-02-19T08:48:31;2.13;;;0.70;;
75698;SDS011;64313;51.018;13.742;2023-02-19T08:51:00;2.05;;;0.63;;
75698;SDS011;64313;51.018;13.742;2023-02-19T08:53:28;2.47;;;0.70;;
75698;SDS011;64313;51.018;13.742;2023-02-19T08:55:55;2.05;;;0.70;;
75698;SDS011;64313;51.018;13.742;2023-02-19T09:00:46;2.22;;;0.82;;
75698;SDS011;64313;51.018;13.742;2023-02-19T09:05:37;2.05;;;0.70;;
75698;SDS011;64313;51.018;13.742;2023-02-19T09:08:03;1.35;;;0.60;;
75698;SDS011;64313;51.018;13.742;2023-02-19T09:10:28;2.42;;;0.68;;
75698;SDS011;64313;51.018;13.742;2023-02-19T09:15:19;2.00;;;0.68;;
75698;SDS011;64313;51.018;13.742;2023-02-19T09:17:49;1.15;;;0.60;;
75698;SDS011;64313;51.018;13.742;2023-02-19T09:20:15;2.13;;;0.80;;
75698;SDS011;64313;51.018;13.742;2023-02-19T09:22:42;1.63;;;0.68;;
75698;SDS011;64313;51.018;13.742;2023-02-19T09:27:34;1.33;;;0.50;;
75698;SDS011;64313;51.018;13.742;2023-02-19T09:29:59;1.33;;;0.50;;
75698;SDS011;64313;51.018;13.742;2023-02-19T09:34:49;2.10;;;0.70;;
75698;SDS011;64313;51.018;13.742;2023-02-19T09:39:40;1.87;;;0.70;;
75698;SDS011;64313;51.018;13.742;2023-02-19T09:42:20;2.65;;;0.80;;
75698;SDS011;64313;51.018;13.742;2023-02-19T09:44:52;2.33;;;0.75;;
75698;SDS011;64313;51.018;13.742;2023-02-19T09:47:20;1.70;;;0.60;;
75698;SDS011;64313;51.018;13.742;2023-02-19T09:49:47;1.60;;;0.70;;
75698;SDS011;64313;51.018;13.742;2023-02-19T09:52:31;0.75;;;0.47;;
75698;SDS011;64313;51.018;13.742;2023-02-19T09:55:25;1.30;;;0.50;;
75698;SDS011;64313;51.018;13.742;2023-02-19T09:57:55;1.67;;;0.40;;
75698;SDS011;64313;51.018;13.742;2023-02-19T10:00:25;0.93;;;0.47;;
75698;SDS011;64313;51.018;13.742;2023-02-19T10:02:53;1.52;;;0.40;;
75698;SDS011;64313;51.018;13.742;2023-02-19T10:05:28;2.30;;;0.65;;
75698;SDS011;64313;51.018;13.742;2023-02-19T10:07:54;2.53;;;0.85;;
75698;SDS011;64313;51.018;13.742;2023-02-19T10:10:23;3.08;;;0.90;;
75698;SDS011;64313;51.018;13.742;2023-02-19T10:12:53;2.97;;;0.88;;
75698;SDS011;64313;51.018;13.742;2023-02-19T10:18:10;2.30;;;0.70;;
75698;SDS011;64313;51.018;13.742;2023-02-19T10:23:05;3.40;;;0.80;;
75698;SDS011;64313;51.018;13.742;2023-02-19T10:25:33;2.95;;;0.80;;
75698;SDS011;64313;51.018;13.742;2023-02-19T10:27:59;2.25;;;0.70;;
75698;SDS011;64313;51.018;13.742;2023-02-19T10:30:30;2.08;;;0.65;;
75698;SDS011;64313;51.018;13.742;2023-02-19T10:35:52;1.70;;;0.57;;
75698;SDS011;64313;51.018;13.742;2023-02-19T10:38:21;1.80;;;0.55;;
75698;SDS011;64313;51.018;13.742;2023-02-19T10:41:05;3.47;;;0.70;;
75698;SDS011;64313;51.018;13.742;2023-02-19T10:43:37;1.95;;;0.70;;
75698;SDS011;64313;51.018;13.742;2023-02-19T10:46:28;2.50;;;0.80;;
75698;SDS011;64313;51.018;13.742;2023-02-19T10:49:04;1.48;;;0.60;;
75698;SDS011;64313;51.018;13.742;2023-02-19T10:51:40;3.45;;;0.90;;
75698;SDS011;64313;51.018;13.742;2023-02-19T10:56:48;3.47;;;0.70;;
75698;SDS011;64313;51.018;13.742;2023-02-19T11:01:52;1.20;;;0.60;;
75698;SDS011;64313;51.018;13.742;2023-02-19T11:04:28;1.10;;;0.50;;
75698;SDS011;64313;51.018;13.742;2023-02-19T11:07:00;1.95;;;0.65;;
75698;SDS011;64313;51.018;13.742;2023-02-19T11:09:37;1.65;;;0.55;;
75698;SDS011;64313;51.018;13.742;2023-02-19T11:12:04;1.45;;;0.63;;
75698;SDS011;64313;51.018;13.742;2023-02-19T11:14:31;1.75;;;0.70;;
75698;SDS011;64313;51.018;13.742;2023-02-19T11:16:58;2.85;;;0.80;;
75698;SDS011;64313;51.018;13.742;2023-02-19T11:19:36;2.60;;;0.60;;
75698;SDS011;64313;51.018;13.742;2023-02-19T11:22:26;1.90;;;0.70;;
75698;SDS011;64313;51.018;13.742;2023-02-19T11:24:54;1.83;;;0.70;;
75698;SDS011;64313;51.018;13.742;2023-02-19T11:27:24;2.70;;;0.60;;
75698;SDS011;64313;51.018;13.742;2023-02-19T11:32:16;1.88;;;0.50;;
75698;SDS011;64313;51.018;13.742;2023-02-19T11:35:03;1.27;;;0.50;;
75698;SDS011;64313;51.018;13.742;2023-02-19T11:37:54;3.42;;;0.50;;
75698;SDS011;64313;51.018;13.742;2023-02-19T11:40:22;3.40;;;0.55;;
75698;SDS011;64313;51.018;13.742;2023-02-19T11:48:52;2.30;;;0.75;;
75698;SDS011;64313;51.018;13.742;2023-02-19T11:54:09;2.28;;;0.60;;
75698;SDS011;64313;51.018;13.742;2023-02-19T11:57:08;2.60;;;0.82;;
75698;SDS011;64313;51.018;13.742;2023-02-19T11:59:47;3.05;;;0.50;;
75698;SDS011;64313;51.018;13.742;2023-02-19T12:05:17;3.47;;;0.88;;
75698;SDS011;64313;51.018;13.742;2023-02-19T12:07:50;2.55;;;0.70;;
75698;SDS011;64313;51.018;13.742;2023-02-19T12:10:37;3.60;;;0.88;;
75698;SDS011;64313;51.018;13.742;2023-02-19T12:18:45;2.85;;;0.80;;
75698;SDS011;64313;51.018;13.742;2023-02-19T12:21:43;2.30;;;0.70;;
75698;SDS011;64313;51.018;13.742;2023-02-19T12:24:44;1.95;;;0.60;;
75698;SDS011;64313;51.018;13.742;2023-02-19T12:27:43;2.20;;;0.65;;
75698;SDS011;64313;51.018;13.742;2023-02-19T12:41:59;3.55;;;0.80;;
75698;SDS011;64313;51.018;13.742;2023-02-19T12:44:37;1.90;;;0.65;;
75698;SDS011;64313;51.018;13.742;2023-02-19T12:47:06;3.10;;;0.73;;
75698;SDS011;64313;51.018;13.742;2023-02-19T12:49:44;3.30;;;0.75;;
75698;SDS011;64313;51.018;13.742;2023-02-19T12:52:25;3.10;;;0.63;;
75698;SDS011;64313;51.018;13.742;2023-02-19T12:54:56;6.63;;;0.82;;
75698;SDS011;64313;51.018;13.742;2023-02-19T12:57:42;1.98;;;0.60;;
75698;SDS011;64313;51.018;13.742;2023-02-19T13:10:32;1.30;;;0.40;;
75698;SDS011;64313;51.018;13.742;2023-02-19T13:13:14;5.63;;;0.60;;
75698;SDS011;64313;51.018;13.742;2023-02-19T13:15:45;3.25;;;0.65;;
75698;SDS011;64313;51.018;13.742;2023-02-19T13:18:25;4.07;;;0.70;;
75698;SDS011;64313;51.018;13.742;2023-02-19T13:23:27;3.45;;;0.60;;
75698;SDS011;64313;51.018;13.742;2023-02-19T13:32:36;2.33;;;0.60;;
75698;SDS011;64313;51.018;13.742;2023-02-19T13:35:27;2.97;;;0.70;;
75698;SDS011;64313;51.018;13.742;2023-02-19T13:38:15;1.27;;;0.40;;
75698;SDS011;64313;51.018;13.742;2023-02-19T13:43:27;2.47;;;0.60;;
75698;SDS011;64313;51.018;13.742;2023-02-19T13:46:31;3.67;;;0.70;;
75698;SDS011;64313;51.018;13.742;2023-02-19T13:48:46;2.78;;;0.60;;
75698;SDS011;64313;51.018;13.742;2023-02-19T13:56:32;4.95;;;0.75;;
75698;SDS011;64313;51.018;13.742;2023-02-19T14:14:40;2.70;;;0.50;;
75698;SDS011;64313;51.018;13.742;2023-02-19T14:25:28;3.13;;;0.40;;
75698;SDS011;64313;51.018;13.742;2023-02-19T14:33:15;3.42;;;0.80;;
75698;SDS011;64313;51.018;13.742;2023-02-19T14:35:43;2.40;;;0.70;;
75698;SDS011;64313;51.018;13.742;2023-02-19T14:38:22;2.22;;;0.60;;
75698;SDS011;64313;51.018;13.742;2023-02-19T14:40:50;1.13;;;0.40;;
75698;SDS011;64313;51.018;13.742;2023-02-19T14:43:18;2.28;;;0.50;;
75698;SDS011;64313;51.018;13.742;2023-02-19T14:45:48;2.22;;;0.60;;
75698;SDS011;64313;51.018;13.742;2023-02-19T14:48:30;3.33;;;0.60;;
75698;SDS011;64313;51.018;13.742;2023-02-19T14:51:01;3.45;;;0.80;;
75698;SDS011;64313;51.018;13.742;2023-02-19T14:53:31;2.55;;;0.60;;
75698;SDS011;64313;51.018;13.742;2023-02-19T14:56:02;3.00;;;0.68;;
75698;SDS011;64313;51.018;13.742;2023-02-19T14:58:31;3.08;;;0.70;;
75698;SDS011;64313;51.018;13.742;2023-02-19T15:00:58;1.58;;;0.60;;
75698;SDS011;64313;51.018;13.742;2023-02-19T15:06:14;2.85;;;0.70;;
75698;SDS011;64313;51.018;13.742;2023-02-19T15:08:44;2.80;;;0.80;;
75698;SDS011;64313;51.018;13.742;2023-02-19T15:11:19;4.40;;;0.85;;
75698;SDS011;64313;51.018;13.742;2023-02-19T15:13:57;3.20;;;0.88;;
75698;SDS011;64313;51.018;13.742;2023-02-19T15:16:28;2.95;;;0.70;;
75698;SDS011;64313;51.018;13.742;2023-02-19T15:18:56;3.25;;;0.90;;
75698;SDS011;64313;51.018;13.742;2023-02-19T15:21:28;4.45;;;0.80;;
75698;SDS011;64313;51.018;13.742;2023-02-19T15:23:55;3.65;;;0.88;;
75698;SDS011;64313;51.018;13.742;2023-02-19T15:26:30;3.33;;;0.95;;
75698;SDS011;64313;51.018;13.742;2023-02-19T15:29:00;2.67;;;0.80;;
75698;SDS011;64313;51.018;13.742;2023-02-19T15:31:28;1.73;;;0.70;;
75698;SDS011;64313;51.018;13.742;2023-02-19T15:36:23;3.47;;;1.00;;
75698;SDS011;64313;51.018;13.742;2023-02-19T15:38:54;3.92;;;0.88;;
75698;SDS011;64313;51.018;13.742;2023-02-19T15:41:22;4.30;;;1.17;;
75698;SDS011;64313;51.018;13.742;2023-02-19T15:43:52;5.18;;;1.00;;
75698;SDS011;64313;51.018;13.742;2023-02-19T15:46:25;3.85;;;1.00;;
75698;SDS011;64313;51.018;13.742;2023-02-19T15:51:24;2.75;;;0.88;;
75698;SDS011;64313;51.018;13.742;2023-02-19T15:54:21;5.25;;;1.13;;
75698;SDS011;64313;51.018;13.742;2023-02-19T15:56:52;2.90;;;0.90;;
75698;SDS011;64313;51.018;13.742;2023-02-19T15:59:24;2.92;;;0.93;;
75698;SDS011;64313;51.018;13.742;2023-02-19T16:01:54;4.38;;;0.80;;
75698;SDS011;64313;51.018;13.742;2023-02-19T16:06:53;4.32;;;1.00;;
75698;SDS011;64313;51.018;13.742;2023-02-19T16:09:27;3.20;;;0.80;;
75698;SDS011;64313;51.018;13.742;2023-02-19T16:11:58;4.85;;;0.90;;
75698;SDS011;64313;51.018;13.742;2023-02-19T16:17:04;6.63;;;1.13;;
75698;SDS011;64313;51.018;13.742;2023-02-19T16:19:54;3.00;;;0.93;;
75698;SDS011;64313;51.018;13.742;2023-02-19T16:22:25;3.28;;;0.80;;
75698;SDS011;64313;51.018;13.742;2023-02-19T16:25:02;4.90;;;1.13;;
75698;SDS011;64313;51.018;13.742;2023-02-19T16:27:39;5.38;;;1.30;;
75698;SDS011;64313;51.018;13.742;2023-02-19T16:30:48;6.60;;;1.40;;
75698;SDS011;64313;51.018;13.742;2023-02-19T16:35:57;4.45;;;1.00;;
75698;SDS011;64313;51.018;13.742;2023-02-19T16:38:39;3.45;;;1.02;;
75698;SDS011;64313;51.018;13.742;2023-02-19T16:43:39;4.53;;;1.38;;
75698;SDS011;64313;51.018;13.742;2023-02-19T16:46:10;3.45;;;1.23;;
75698;SDS011;64313;51.018;13.742;2023-02-19T16:48:37;6.18;;;1.30;;
75698;SDS011;64313;51.018;13.742;2023-02-19T16:51:04;4.88;;;1.30;;
75698;SDS011;64313;51.018;13.742;2023-02-19T16:53:31;5.20;;;1.48;;
75698;SDS011;64313;51.018;13.742;2023-02-19T16:55:57;5.47;;;1.40;;
75698;SDS011;64313;51.018;13.742;2023-02-19T16:58:23;6.05;;;1.70;;
75698;SDS011;64313;51.018;13.742;2023-02-19T17:00:50;4.68;;;1.85;;
75698;SDS011;64313;51.018;13.742;2023-02-19T17:05:43;5.13;;;2.00;;
75698;SDS011;64313;51.018;13.742;2023-02-19T17:10:47;5.72;;;2.03;;
75698;SDS011;64313;51.018;13.742;2023-02-19T17:15:37;6.22;;;2.67;;
75698;SDS011;64313;51.018;13.742;2023-02-19T17:20:28;6.93;;;2.90;;
75698;SDS011;64313;51.018;13.742;2023-02-19T17:22:55;6.72;;;2.72;;
75698;SDS011;64313;51.018;13.742;2023-02-19T17:27:46;6.57;;;2.63;;
75698;SDS011;64313;51.018;13.742;2023-02-19T17:32:40;5.57;;;2.30;;
75698;SDS011;64313;51.018;13.742;2023-02-19T17:37:31;5.35;;;2.25;;
75698;SDS011;64313;51.018;13.742;2023-02-19T17:42:21;4.75;;;2.00;;
75698;SDS011;64313;51.018;13.742;2023-02-19T17:47:13;6.47;;;2.38;;
75698;SDS011;64313;51.018;13.742;2023-02-19T17:49:38;5.50;;;2.20;;
75698;SDS011;64313;51.018;13.742;2023-02-19T17:52:04;4.65;;;2.00;;
75698;SDS011;64313;51.018;13.742;2023-02-19T17:56:55;7.50;;;2.05;;
75698;SDS011;64313;51.018;13.742;2023-02-19T17:59:20;4.85;;;2.17;;
75698;SDS011;64313;51.018;13.742;2023-02-19T18:01:45;5.65;;;1.70;;
75698;SDS011;64313;51.018;13.742;2023-02-19T18:06:36;4.83;;;1.90;;
75698;SDS011;64313;51.018;13.742;2023-02-19T18:09:01;5.22;;;1.80;;
75698;SDS011;64313;51.018;13.742;2023-02-19T18:11:26;5.82;;;1.70;;
75698;SDS011;64313;51.018;13.742;2023-02-19T18:13:52;5.95;;;1.80;;
75698;SDS011;64313;51.018;13.742;2023-02-19T18:18:43;6.40;;;1.83;;
75698;SDS011;64313;51.018;13.742;2023-02-19T18:21:09;5.55;;;2.08;;